Time;durP1;ratioP1;P1;durP2;ratioP2;P2;SDS_P1;SDS_P2;PMS_P1;PMS_P2;Temp;Humidity;BMP_temperature;BMP_pressure;BME280_temperature;BME280_humidity;BME280_pressure;Samples;Min_cycle;Max_cycle;Signal;HPM_P1;HPM_P2
2022/12/09 00:01:37;;;;;;;22.23;13.67;;;;;;;4.02;81.60;98942.41;5097522;28;20271;-82
2022/12/09 00:04:02;;;;;;;21.38;14.48;;;;;;;4.06;81.62;98946.28;5097371;28;20277;-81
2022/12/09 00:06:28;;;;;;;23.73;14.60;;;;;;;3.91;81.66;98940.56;5096263;28;20058;-82
2022/12/09 00:08:55;;;;;;;23.00;12.00;;;;;;;3.99;81.40;98942.09;5097451;28;20023;-82
2022/12/09 00:11:21;;;;;;;18.65;12.45;;;;;;;4.02;81.40;98937.03;5097012;28;20027;-81
2022/12/09 00:13:52;;;;;;;23.38;14.10;;;;;;;4.01;81.40;98932.69;5097319;28;20533;-81
2022/12/09 00:16:18;;;;;;;25.15;13.82;;;;;;;4.02;81.11;98933.50;5095809;28;20042;-81
2022/12/09 00:18:44;;;;;;;23.83;14.27;;;;;;;4.01;81.63;98923.78;5098178;28;20373;-82
2022/12/09 00:21:11;;;;;;;23.15;12.77;;;;;;;3.98;81.46;98935.88;5096220;28;20038;-82
2022/12/09 00:23:36;;;;;;;21.92;13.32;;;;;;;4.04;81.59;98926.81;5096344;28;20106;-81
2022/12/09 00:26:02;;;;;;;20.73;12.73;;;;;;;4.02;81.19;98922.72;5098117;28;20119;-81
2022/12/09 00:28:27;;;;;;;25.58;14.38;;;;;;;3.97;80.80;98920.72;5097062;28;20248;-81
2022/12/09 00:30:52;;;;;;;22.17;12.80;;;;;;;3.97;81.20;98920.72;5096514;28;20241;-82
2022/12/09 00:33:18;;;;;;;27.25;12.20;;;;;;;3.99;80.94;98928.59;5097508;28;20252;-81
2022/12/09 00:35:43;;;;;;;22.50;12.65;;;;;;;4.03;81.04;98925.16;5098473;28;20081;-82
2022/12/09 00:38:08;;;;;;;25.83;13.25;;;;;;;4.01;80.85;98921.88;5096015;28;20418;-82
2022/12/09 00:40:33;;;;;;;20.90;12.87;;;;;;;3.93;80.95;98931.19;5098168;28;20016;-82
2022/12/09 00:42:59;;;;;;;22.13;13.03;;;;;;;3.97;81.11;98926.94;5097114;28;20260;-82
2022/12/09 00:45:24;;;;;;;22.57;13.90;;;;;;;3.93;81.12;98933.88;5095991;28;20260;-82
2022/12/09 00:47:49;;;;;;;26.53;11.87;;;;;;;3.93;81.63;98935.75;5097049;28;20301;-82
2022/12/09 00:50:15;;;;;;;17.97;12.63;;;;;;;3.99;80.96;98934.78;5098095;28;20297;-81
2022/12/09 00:52:40;;;;;;;21.67;13.93;;;;;;;4.01;80.79;98932.69;5097901;28;20590;-82
2022/12/09 00:55:05;;;;;;;23.83;14.02;;;;;;;4.00;81.48;98930.22;5096805;28;20123;-82
2022/12/09 00:57:31;;;;;;;29.42;16.20;;;;;;;4.05;80.88;98930.31;5096586;28;20488;-82
2022/12/09 00:59:56;;;;;;;26.57;14.87;;;;;;;4.12;80.79;98925.59;5098065;28;20529;-82
2022/12/09 01:02:21;;;;;;;23.60;15.13;;;;;;;4.01;80.98;98927.28;5098889;28;20256;-82
2022/12/09 01:04:50;;;;;;;27.30;15.05;;;;;;;4.15;80.92;98921.59;5095344;28;20260;-82
2022/12/09 01:07:15;;;;;;;27.80;14.82;;;;;;;4.19;80.58;98922.75;5098085;28;20035;-82
2022/12/09 01:09:40;;;;;;;19.53;13.13;;;;;;;4.05;80.78;98917.66;5098209;28;20036;-81
2022/12/09 01:12:06;;;;;;;26.10;15.27;;;;;;;4.07;81.05;98923.63;5098582;28;20316;-81
2022/12/09 01:14:31;;;;;;;23.08;15.23;;;;;;;4.12;80.99;98922.91;5097297;28;20287;-81
2022/12/09 01:16:56;;;;;;;24.23;15.30;;;;;;;4.11;81.11;98923.16;5097772;28;20016;-82
2022/12/09 01:19:21;;;;;;;29.43;15.90;;;;;;;4.01;81.08;98921.09;5099427;28;20042;-81
2022/12/09 01:21:47;;;;;;;28.37;17.57;;;;;;;3.93;81.28;98928.50;5095257;28;20252;-82
2022/12/09 01:24:13;;;;;;;30.60;17.07;;;;;;;4.06;81.09;98916.59;5096767;28;20303;-81
2022/12/09 01:26:38;;;;;;;27.55;17.13;;;;;;;4.03;81.34;98932.44;5100097;28;20256;-81
2022/12/09 01:29:04;;;;;;;24.17;14.23;;;;;;;4.02;81.23;98931.63;5100355;28;20423;-82
2022/12/09 01:31:29;;;;;;;28.63;16.23;;;;;;;4.17;80.77;98928.38;5098537;28;20043;-82
2022/12/09 01:33:55;;;;;;;25.90;16.55;;;;;;;4.16;80.79;98924.06;5100404;28;20061;-82
2022/12/09 01:36:23;;;;;;;36.30;17.90;;;;;;;4.06;80.58;98937.34;5099122;28;20085;-82
2022/12/09 01:38:49;;;;;;;26.70;15.02;;;;;;;4.15;80.78;98929.69;5101319;28;20024;-82
2022/12/09 01:41:15;;;;;;;23.85;15.40;;;;;;;4.02;81.23;98934.34;5098707;28;20024;-81
2022/12/09 01:43:41;;;;;;;27.98;17.83;;;;;;;4.16;80.97;98940.25;5098643;28;20032;-81
2022/12/09 01:46:06;;;;;;;26.80;16.63;;;;;;;4.04;81.34;98936.78;5099049;28;20142;-82
2022/12/09 01:48:36;;;;;;;35.45;17.33;;;;;;;4.04;81.20;98932.22;5099511;28;20031;-81
2022/12/09 01:51:15;;;;;;;24.15;15.95;;;;;;;4.04;80.95;98931.38;5099907;28;20543;-81
2022/12/09 01:53:43;;;;;;;29.13;17.65;;;;;;;3.99;81.27;98934.78;5099889;28;20035;-81
2022/12/09 01:56:33;;;;;;;28.75;17.40;;;;;;;4.01;79.72;98927.28;5098839;28;20427;-81
2022/12/09 01:59:04;;;;;;;26.15;16.17;;;;;;;4.02;80.47;98931.63;5088908;28;20378;-79
2022/12/09 02:01:30;;;;;;;25.15;16.35;;;;;;;3.99;80.77;98928.59;5099713;28;20034;-81
2022/12/09 02:03:55;;;;;;;30.92;16.50;;;;;;;4.01;80.80;98927.28;5098944;28;20031;-81
2022/12/09 02:06:20;;;;;;;31.67;15.25;;;;;;;4.00;81.24;98931.06;5098545;28;20533;-82
2022/12/09 02:08:48;;;;;;;29.80;17.35;;;;;;;4.10;80.60;98930.41;5099102;28;20055;-80
2022/12/09 02:11:19;;;;;;;25.27;14.70;;;;;;;4.01;80.57;98926.50;5097862;28;20039;-80
2022/12/09 02:14:05;;;;;;;30.08;17.88;;;;;;;4.11;80.06;98917.75;5099035;28;20044;-81
2022/12/09 02:16:39;;;;;;;31.30;19.15;;;;;;;4.16;79.34;98921.34;5099226;28;20127;-81
2022/12/09 02:19:25;;;;;;;27.58;16.67;;;;;;;4.03;79.58;98919.78;5098020;28;20055;-81
2022/12/09 02:21:57;;;;;;;28.08;15.98;;;;;;;4.04;79.40;98916.03;5098071;28;20032;-82
2022/12/09 02:24:56;;;;;;;28.60;16.23;;;;;;;3.94;80.29;98913.13;5098206;28;20494;-81
2022/12/09 02:27:35;;;;;;;28.98;15.73;;;;;;;3.95;80.88;98917.47;5098172;28;20031;-81
2022/12/09 02:30:39;;;;;;;24.58;16.88;;;;;;;3.99;80.23;98917.81;5097147;28;20429;-81
2022/12/09 02:33:21;;;;;;;30.73;18.23;;;;;;;3.92;80.63;98909.88;5097073;28;20585;-81
2022/12/09 02:36:00;;;;;;;28.70;16.20;;;;;;;3.86;80.50;98914.34;5097114;28;20043;-81
2022/12/09 02:38:27;;;;;;;26.77;16.50;;;;;;;3.92;80.77;98909.88;5096770;28;20027;-81
2022/12/09 02:40:59;;;;;;;28.88;17.52;;;;;;;4.01;80.05;98905.69;5096912;28;20016;-81
2022/12/09 02:43:30;;;;;;;33.28;18.95;;;;;;;4.02;80.13;98907.34;5097182;28;20114;-81
2022/12/09 02:45:58;;;;;;;26.70;15.93;;;;;;;4.16;79.41;98898.94;5096086;28;20550;-81
2022/12/09 02:48:32;;;;;;;32.33;17.00;;;;;;;4.00;79.83;98898.69;5099338;28;20052;-81
2022/12/09 02:51:01;;;;;;;27.98;16.25;;;;;;;3.99;79.39;98902.44;5099290;28;20070;-81
2022/12/09 02:53:28;;;;;;;28.08;15.98;;;;;;;4.03;79.50;98903.59;5098868;28;20385;-81
2022/12/09 02:55:54;;;;;;;25.98;16.15;;;;;;;3.92;79.37;98907.16;5098922;28;20032;-81
2022/12/09 02:58:20;;;;;;;34.08;18.15;;;;;;;3.92;79.74;98899.06;5100011;28;20503;-80
2022/12/09 03:00:45;;;;;;;30.00;16.17;;;;;;;3.95;79.53;98887.78;5099238;28;20051;-81
2022/12/09 03:03:15;;;;;;;27.75;16.85;;;;;;;4.05;79.55;98887.97;5099725;28;20051;-81
2022/12/09 03:06:00;;;;;;;26.65;15.45;;;;;;;3.97;78.70;98893.75;5097296;28;20536;-81
2022/12/09 03:08:51;;;;;;;29.23;15.88;;;;;;;3.95;79.25;98890.47;5098051;28;20023;-81
2022/12/09 03:11:19;;;;;;;30.38;16.50;;;;;;;4.02;79.04;98891.16;5100069;28;20044;-81
2022/12/09 03:14:16;;;;;;;26.58;15.27;;;;;;;3.96;79.28;98892.13;5098943;28;20055;-81
2022/12/09 03:17:02;;;;;;;33.03;17.42;;;;;;;3.93;79.51;98898.00;5098856;28;20027;-82
2022/12/09 03:19:32;;;;;;;34.47;18.45;;;;;;;3.85;79.63;98889.25;5097527;28;20366;-80
2022/12/09 03:22:02;;;;;;;27.02;16.30;;;;;;;3.93;79.88;98889.91;5096778;28;20036;-81
2022/12/09 03:24:33;;;;;;;27.08;16.13;;;;;;;3.91;79.83;98886.63;5096416;28;20040;-81
2022/12/09 03:27:02;;;;;;;31.17;17.85;;;;;;;3.83;79.92;98888.66;5097708;28;20042;-81
2022/12/09 03:29:32;;;;;;;25.48;16.00;;;;;;;3.90;79.99;98882.31;5097775;28;20067;-81
2022/12/09 03:31:58;;;;;;;34.47;16.00;;;;;;;3.94;79.31;98883.47;5097828;28;20036;-81
2022/12/09 03:34:29;;;;;;;24.92;15.55;;;;;;;3.96;79.14;98876.78;5095829;28;20086;-81
2022/12/09 03:36:58;;;;;;;28.58;18.15;;;;;;;3.86;80.10;98881.97;5099567;28;20031;-81
2022/12/09 03:39:26;;;;;;;28.65;17.98;;;;;;;3.88;80.16;98884.44;5097137;28;20021;-81
2022/12/09 03:41:57;;;;;;;29.55;15.93;;;;;;;3.78;80.10;98883.19;5098224;28;20078;-81
2022/12/09 03:44:33;;;;;;;27.85;15.90;;;;;;;3.76;80.37;98889.88;5096613;28;20042;-81
2022/12/09 03:46:59;;;;;;;27.73;17.38;;;;;;;3.82;80.62;98887.03;5097549;28;20404;-81
2022/12/09 03:49:24;;;;;;;28.60;15.80;;;;;;;3.76;80.92;98884.50;5095924;28;20038;-81
2022/12/09 03:51:59;;;;;;;33.17;18.10;;;;;;;3.66;81.16;98883.22;5097115;28;20060;-81
2022/12/09 03:54:34;;;;;;;27.98;17.42;;;;;;;3.55;81.15;98884.91;5094306;28;20579;-81
2022/12/09 03:57:00;;;;;;;31.85;18.08;;;;;;;3.55;81.64;98882.22;5095972;28;20043;-81
2022/12/09 03:59:29;;;;;;;27.73;14.98;;;;;;;3.52;81.53;98882.69;5096562;28;20037;-81
2022/12/09 04:01:55;;;;;;;31.23;18.38;;;;;;;3.38;82.16;98869.50;5096533;28;20032;-81
2022/12/09 04:04:21;;;;;;;28.90;18.33;;;;;;;3.59;81.67;98879.84;5096256;28;20027;-81
2022/12/09 04:06:49;;;;;;;29.98;16.13;;;;;;;3.54;81.36;98872.47;5095773;28;20080;-81
2022/12/09 04:09:14;;;;;;;31.23;18.13;;;;;;;3.50;81.34;98869.47;5095639;28;20027;-81
2022/12/09 04:11:39;;;;;;;30.75;17.13;;;;;;;3.52;81.33;98866.50;5096387;28;20118;-81
2022/12/09 04:14:05;;;;;;;27.75;16.30;;;;;;;3.50;81.50;98868.63;5097019;28;20051;-81
2022/12/09 04:16:30;;;;;;;29.67;17.60;;;;;;;3.48;81.65;98868.88;5096791;28;20382;-81
2022/12/09 04:18:55;;;;;;;25.60;15.90;;;;;;;3.53;81.97;98867.34;5096388;28;20252;-81
2022/12/09 04:21:21;;;;;;;29.10;17.15;;;;;;;3.53;81.42;98868.16;5094859;28;20277;-81
2022/12/09 04:23:46;;;;;;;24.92;17.35;;;;;;;3.48;81.84;98859.97;5095308;28;20028;-81
2022/12/09 04:26:14;;;;;;;26.33;15.10;;;;;;;3.32;81.34;98856.16;5093649;28;20028;-81
2022/12/09 04:28:40;;;;;;;32.50;15.27;;;;;;;3.37;82.00;98859.78;5094714;28;20036;-81
2022/12/09 04:31:09;;;;;;;27.90;17.47;;;;;;;3.33;81.75;98853.25;5096078;28;20031;-80
2022/12/09 04:33:34;;;;;;;27.15;18.05;;;;;;;3.32;81.37;98845.38;5095414;28;20256;-81
2022/12/09 04:36:05;;;;;;;26.83;15.67;;;;;;;3.09;82.13;98847.88;5094554;28;20036;-81
2022/12/09 04:38:30;;;;;;;26.77;15.27;;;;;;;3.15;81.71;98846.16;5095742;28;20267;-81
2022/12/09 04:40:58;;;;;;;30.33;15.93;;;;;;;3.03;81.59;98846.19;5097076;28;20468;-81
2022/12/09 04:43:23;;;;;;;26.67;15.48;;;;;;;3.01;81.98;98850.97;5096431;28;20073;-81
2022/12/09 04:45:49;;;;;;;24.20;15.57;;;;;;;2.90;81.69;98850.75;5096851;28;20419;-82
2022/12/09 04:48:14;;;;;;;26.93;17.17;;;;;;;2.87;82.18;98853.91;5096386;28;20244;-81
2022/12/09 04:50:40;;;;;;;31.27;16.50;;;;;;;2.79;82.76;98849.69;5097678;28;20272;-81
2022/12/09 04:53:05;;;;;;;31.25;17.92;;;;;;;2.87;82.72;98847.69;5096735;28;20327;-81
2022/12/09 04:55:31;;;;;;;27.55;15.85;;;;;;;3.05;81.93;98846.75;5095451;28;20107;-81
2022/12/09 04:57:56;;;;;;;27.40;16.03;;;;;;;2.92;81.93;98848.66;5098470;28;20032;-81
2022/12/09 05:00:21;;;;;;;23.47;16.27;;;;;;;2.88;82.56;98850.19;5102255;28;20301;-81
2022/12/09 05:02:46;;;;;;;37.87;17.13;;;;;;;2.86;82.73;98846.91;5101826;28;20249;-80
2022/12/09 05:05:12;;;;;;;26.90;17.37;;;;;;;2.96;81.86;98845.47;5102768;28;20657;-82
2022/12/09 05:07:37;;;;;;;27.30;17.02;;;;;;;2.90;81.97;98845.38;5102463;28;20303;-81
2022/12/09 05:10:02;;;;;;;32.42;15.90;;;;;;;2.90;82.28;98840.00;5101844;28;20024;-81
2022/12/09 05:12:28;;;;;;;27.67;16.42;;;;;;;2.99;81.78;98845.00;5102701;28;20262;-81
2022/12/09 05:14:53;;;;;;;26.53;15.80;;;;;;;2.98;82.59;98843.34;5101855;28;20351;-81
2022/12/09 05:17:18;;;;;;;33.13;18.45;;;;;;;3.14;81.44;98856.09;5102085;28;20260;-81
2022/12/09 05:19:43;;;;;;;34.00;17.25;;;;;;;3.03;81.39;98856.94;5101854;28;20032;-81
2022/12/09 05:22:09;;;;;;;31.23;18.47;;;;;;;2.91;82.16;98857.75;5100912;28;20059;-81
2022/12/09 05:24:34;;;;;;;30.58;17.00;;;;;;;2.83;82.55;98851.94;5102850;28;20648;-82
2022/12/09 05:26:59;;;;;;;28.17;17.23;;;;;;;2.78;82.12;98858.03;5102776;28;20036;-81
2022/12/09 05:29:25;;;;;;;27.20;16.73;;;;;;;2.72;81.63;98854.41;5100411;28;20123;-81
2022/12/09 05:31:50;;;;;;;33.08;18.63;;;;;;;2.73;82.43;98847.13;5101390;27;20264;-81
2022/12/09 05:34:16;;;;;;;26.27;15.80;;;;;;;2.75;82.09;98848.53;5099968;28;20027;-81
2022/12/09 05:36:41;;;;;;;32.33;19.25;;;;;;;2.81;82.19;98841.38;5102146;28;20047;-81
2022/12/09 05:39:07;;;;;;;27.42;16.98;;;;;;;2.76;82.29;98852.88;5099193;28;20085;-80
2022/12/09 05:41:32;;;;;;;45.10;19.73;;;;;;;2.94;82.11;98843.03;5099493;28;20034;-81
2022/12/09 05:43:57;;;;;;;29.08;18.80;;;;;;;2.92;81.57;98845.13;5101467;28;20280;-81
2022/12/09 05:46:22;;;;;;;27.05;16.70;;;;;;;2.97;81.48;98847.13;5100885;28;20028;-81
2022/12/09 05:48:48;;;;;;;28.53;18.37;;;;;;;3.10;81.61;98859.50;5100967;28;20070;-81
2022/12/09 05:51:23;;;;;;;27.85;16.88;;;;;;;3.06;81.50;98847.56;5100251;28;20829;-81
2022/12/09 05:53:48;;;;;;;28.88;19.30;;;;;;;3.17;80.37;98854.81;5100165;28;20507;-81
2022/12/09 05:56:15;;;;;;;31.13;17.13;;;;;;;3.20;79.42;98848.94;5100765;28;20036;-81
2022/12/09 05:58:40;;;;;;;33.40;16.70;;;;;;;3.27;79.89;98846.13;5100974;28;20487;-81
2022/12/09 06:01:06;;;;;;;32.28;16.98;;;;;;;3.35;79.33;98848.44;5100579;28;20032;-81
2022/12/09 06:03:32;;;;;;;27.10;16.88;;;;;;;3.43;78.55;98841.00;5100693;28;20032;-81
2022/12/09 06:05:57;;;;;;;29.60;18.70;;;;;;;3.22;79.52;98846.00;5100223;28;20076;-81
2022/12/09 06:08:22;;;;;;;28.92;19.45;;;;;;;3.17;80.80;98838.66;5100922;28;20086;-80
2022/12/09 06:10:48;;;;;;;26.70;15.15;;;;;;;3.21;79.73;98833.59;5100072;28;20082;-81
2022/12/09 06:13:13;;;;;;;35.78;17.63;;;;;;;3.10;80.41;98832.56;5101203;28;20139;-81
2022/12/09 06:15:38;;;;;;;28.65;17.38;;;;;;;3.06;81.23;98832.22;5100941;28;20040;-80
2022/12/09 06:18:04;;;;;;;30.67;17.93;;;;;;;3.11;81.30;98829.63;5099790;28;20058;-81
2022/12/09 06:20:29;;;;;;;32.33;17.70;;;;;;;3.10;80.41;98825.31;5101695;28;20260;-81
2022/12/09 06:22:55;;;;;;;25.60;16.25;;;;;;;3.17;80.43;98832.44;5100531;28;20063;-80
2022/12/09 06:25:20;;;;;;;27.85;16.70;;;;;;;3.02;80.58;98822.97;5099122;28;20077;-81
2022/12/09 06:27:45;;;;;;;28.63;17.53;;;;;;;2.84;80.84;98824.78;5100619;28;20027;-80
2022/12/09 06:30:10;;;;;;;34.00;18.90;;;;;;;2.76;81.38;98827.81;5100005;28;20271;-81
2022/12/09 06:32:36;;;;;;;32.05;18.35;;;;;;;2.70;81.38;98834.97;5098587;28;20642;-82
2022/12/09 06:35:01;;;;;;;29.50;17.65;;;;;;;2.58;81.29;98832.28;5099469;28;20077;-81
2022/12/09 06:37:26;;;;;;;29.60;17.70;;;;;;;2.60;80.60;98832.88;5100308;28;20077;-81
2022/12/09 06:39:51;;;;;;;32.28;16.92;;;;;;;2.44;80.96;98837.88;5101328;28;20069;-81
2022/12/09 06:42:17;;;;;;;26.33;17.50;;;;;;;2.51;81.29;98836.97;5100375;28;20032;-81
2022/12/09 06:44:43;;;;;;;29.23;19.10;;;;;;;2.58;80.97;98843.06;5099810;28;21189;-81
2022/12/09 06:47:08;;;;;;;29.00;15.95;;;;;;;2.59;80.85;98839.31;5100124;28;20077;-81
2022/12/09 06:49:33;;;;;;;27.40;16.15;;;;;;;2.38;80.78;98833.44;5100594;28;20031;-80
2022/12/09 06:51:58;;;;;;;30.25;18.80;;;;;;;2.28;81.87;98828.66;5100078;28;20043;-81
2022/12/09 06:54:24;;;;;;;36.83;19.77;;;;;;;2.41;81.17;98832.16;5097949;28;20691;-80
2022/12/09 06:56:49;;;;;;;28.13;16.38;;;;;;;2.41;81.39;98833.00;5100203;28;20453;-81
2022/12/09 06:59:15;;;;;;;34.95;19.15;;;;;;;2.61;80.60;98841.75;5099334;28;20089;-81
2022/12/09 07:01:40;;;;;;;31.35;18.10;;;;;;;2.50;81.14;98840.72;5100327;28;20027;-81
2022/12/09 07:04:06;;;;;;;31.02;17.63;;;;;;;2.53;81.88;98835.69;5100273;28;20038;-81
2022/12/09 07:06:39;;;;;;;35.78;19.48;;;;;;;2.44;81.71;98837.88;5101117;28;20023;-82
2022/12/09 07:09:10;;;;;;;32.45;18.27;;;;;;;2.36;82.61;98835.53;5099366;28;20036;-80
2022/12/09 07:11:36;;;;;;;32.72;18.85;;;;;;;2.50;82.07;98846.09;5099976;28;20059;-81
2022/12/09 07:14:02;;;;;;;30.98;16.60;;;;;;;2.51;82.16;98842.34;5098352;28;20043;-81
2022/12/09 07:16:28;;;;;;;33.75;18.17;;;;;;;2.55;82.53;98848.91;5099804;28;20610;-81
2022/12/09 07:18:53;;;;;;;34.45;20.90;;;;;;;2.86;81.46;98852.28;5100317;28;20111;-81
2022/12/09 07:21:22;;;;;;;40.63;21.40;;;;;;;2.82;80.74;98852.97;5099866;28;20028;-81
2022/12/09 07:23:47;;;;;;;37.55;22.02;;;;;;;2.62;82.31;98851.47;5099533;28;20024;-81
2022/12/09 07:26:14;;;;;;;36.85;18.70;;;;;;;2.65;82.15;98862.59;5099529;28;20034;-82
2022/12/09 07:28:43;;;;;;;29.38;18.02;;;;;;;2.66;82.11;98855.34;5099666;28;20488;-81
2022/12/09 07:31:26;;;;;;;28.02;17.75;;;;;;;2.67;82.11;98854.28;5098828;28;20032;-81
2022/12/09 07:33:53;;;;;;;44.83;19.25;;;;;;;2.76;81.69;98858.25;5099467;28;20035;-81
2022/12/09 07:36:19;;;;;;;32.88;20.75;;;;;;;2.68;82.19;98862.09;5099076;28;20407;-80
2022/12/09 07:38:44;;;;;;;31.67;20.05;;;;;;;2.64;82.42;98866.34;5098454;28;20107;-81
2022/12/09 07:41:16;;;;;;;42.17;19.60;;;;;;;2.66;82.79;98866.94;5098616;28;20043;-81
2022/12/09 07:43:43;;;;;;;27.75;17.02;;;;;;;2.77;82.28;98867.13;5099763;28;20040;-81
2022/12/09 07:46:09;;;;;;;35.92;21.55;;;;;;;2.65;82.42;98872.53;5098655;28;20038;-81
2022/12/09 07:48:34;;;;;;;34.08;20.27;;;;;;;2.65;82.76;98873.34;5099746;27;20027;-81
2022/12/09 07:51:01;;;;;;;34.15;19.73;;;;;;;2.72;82.81;98878.63;5099570;28;20532;-81
2022/12/09 07:53:26;;;;;;;31.05;18.25;;;;;;;2.83;82.68;98876.19;5098677;28;20412;-81
2022/12/09 07:55:52;;;;;;;29.95;20.00;;;;;;;2.84;82.62;98875.09;5098794;28;20027;-82
2022/12/09 07:58:17;;;;;;;39.10;19.65;;;;;;;2.83;82.43;98876.97;5099249;28;20102;-81
2022/12/09 08:00:42;;;;;;;38.47;17.88;;;;;;;3.03;82.39;98886.56;5099724;28;20032;-82
2022/12/09 08:03:10;;;;;;;30.27;18.83;;;;;;;3.02;82.08;98882.22;5098498;28;20042;-81
2022/12/09 08:05:35;;;;;;;32.25;18.77;;;;;;;2.89;82.37;98884.09;5097515;28;20458;-81
2022/12/09 08:08:01;;;;;;;28.97;17.83;;;;;;;2.99;82.08;98883.50;5098737;28;20532;-81
2022/12/09 08:10:26;;;;;;;33.05;19.15;;;;;;;2.91;82.39;98890.06;5097341;28;20241;-81
2022/12/09 08:12:51;;;;;;;32.57;18.53;;;;;;;3.05;81.59;98889.84;5098491;28;20087;-81
2022/12/09 08:15:18;;;;;;;36.03;21.70;;;;;;;3.08;81.77;98894.75;5097848;28;20777;-81
2022/12/09 08:17:44;;;;;;;35.55;21.73;;;;;;;3.12;81.97;98890.53;5098731;28;20260;-80
2022/12/09 08:20:10;;;;;;;34.95;19.00;;;;;;;2.94;82.47;98893.34;5097754;28;20039;-81
2022/12/09 08:22:36;;;;;;;33.17;18.35;;;;;;;2.87;83.05;98888.09;5098701;28;20020;-80
2022/12/09 08:25:01;;;;;;;36.50;19.40;;;;;;;2.86;83.10;98898.06;5097022;28;20040;-82
2022/12/09 08:27:26;;;;;;;34.90;20.75;;;;;;;3.01;82.70;98896.75;5098301;28;20493;-81
2022/12/09 08:29:51;;;;;;;32.45;20.73;;;;;;;3.03;82.24;98900.03;5097611;28;20118;-81
2022/12/09 08:32:17;;;;;;;27.47;17.87;;;;;;;2.98;82.48;98891.84;5099099;28;20100;-80
2022/12/09 08:34:42;;;;;;;30.17;17.60;;;;;;;3.02;81.85;98898.38;5097494;28;21055;-81
2022/12/09 08:37:07;;;;;;;37.28;17.98;;;;;;;2.95;81.90;98892.31;5097678;28;20035;-80
2022/12/09 08:39:33;;;;;;;36.07;18.90;;;;;;;3.05;82.08;98892.53;5098056;28;20032;-81
2022/12/09 08:41:58;;;;;;;33.05;19.00;;;;;;;3.03;81.54;98892.75;5098807;28;20261;-81
2022/12/09 08:44:23;;;;;;;32.95;18.13;;;;;;;3.09;81.68;98891.00;5094754;28;20023;-80
2022/12/09 08:46:51;;;;;;;30.53;17.70;;;;;;;3.01;81.90;98877.91;5097202;28;20042;-83
2022/12/09 08:49:19;;;;;;;35.58;20.77;;;;;;;3.06;80.97;98886.09;5094913;28;20271;-80
2022/12/09 08:51:47;;;;;;;35.15;21.77;;;;;;;3.11;80.82;98886.19;5096664;28;20470;-78
2022/12/09 08:54:12;;;;;;;30.45;21.08;;;;;;;3.12;81.24;98879.75;5098009;28;20035;-79
2022/12/09 08:56:37;;;;;;;46.47;21.80;;;;;;;3.16;81.29;98880.09;5098658;28;20024;-79
2022/12/09 08:59:03;;;;;;;36.65;20.50;;;;;;;3.08;82.60;98873.19;5097787;28;20389;-79
2022/12/09 09:01:33;;;;;;;33.38;21.48;;;;;;;3.31;81.85;98876.91;5097875;28;20027;-79
2022/12/09 09:04:05;;;;;;;34.35;21.58;;;;;;;3.15;80.97;98873.88;5097354;28;20032;-81
2022/12/09 09:06:30;;;;;;;31.35;19.67;;;;;;;3.21;81.79;98879.38;5098017;28;20455;-79
2022/12/09 09:08:56;;;;;;;37.03;18.70;;;;;;;3.23;81.28;98874.59;5098708;28;20051;-80
2022/12/09 09:11:23;;;;;;;31.20;17.42;;;;;;;3.34;80.34;98878.28;5098472;28;20095;-81
2022/12/09 09:13:52;;;;;;;35.88;22.05;;;;;;;3.50;80.00;98874.03;5093919;28;20048;-78
2022/12/09 09:16:22;;;;;;;41.55;24.02;;;;;;;3.48;80.24;98878.84;5097578;28;20032;-79
2022/12/09 09:18:48;;;;;;;35.40;23.58;;;;;;;3.25;81.66;98873.28;5097684;28;20024;-79
2022/12/09 09:21:18;;;;;;;41.22;25.05;;;;;;;3.13;82.17;98885.97;5098930;28;20031;-80
2022/12/09 09:23:44;;;;;;;35.15;21.58;;;;;;;3.24;82.47;98884.28;5097449;28;20518;-81
2022/12/09 09:26:11;;;;;;;40.63;23.52;;;;;;;3.26;83.04;98892.94;5097193;28;20119;-80
2022/12/09 09:28:37;;;;;;;30.58;20.00;;;;;;;3.36;81.27;98895.88;5094504;28;20318;-80
2022/12/09 09:31:04;;;;;;;35.80;19.52;;;;;;;3.38;81.25;98896.44;5098450;28;20629;-80
2022/12/09 09:33:29;;;;;;;31.90;19.73;;;;;;;3.35;81.20;98894.25;5097672;28;20024;-80
2022/12/09 09:36:00;;;;;;;32.92;19.80;;;;;;;3.37;81.05;98899.38;5096973;28;20463;-79
2022/12/09 09:38:26;;;;;;;30.05;19.60;;;;;;;3.43;80.78;98893.03;5095360;28;20282;-79
2022/12/09 09:40:52;;;;;;;31.35;19.73;;;;;;;3.34;80.40;98899.84;5096425;28;20540;-79
2022/12/09 09:43:21;;;;;;;33.17;18.05;;;;;;;3.38;80.44;98896.44;5097851;28;20081;-79
2022/12/09 09:45:48;;;;;;;30.45;16.35;;;;;;;3.34;80.10;98897.16;5099183;28;20066;-79
2022/12/09 09:48:20;;;;;;;40.03;20.13;;;;;;;3.26;80.68;98899.16;5100968;28;20572;-79
2022/12/09 09:51:05;;;;;;;26.30;17.60;;;;;;;3.22;80.34;98894.50;5098150;28;20348;-79
2022/12/09 09:53:33;;;;;;;31.80;18.75;;;;;;;3.33;80.15;98890.97;5097420;28;20035;-78
2022/12/09 09:56:24;;;;;;;31.63;19.08;;;;;;;3.31;81.27;98898.47;5096906;28;20051;-80
2022/12/09 09:59:22;;;;;;;32.28;19.80;;;;;;;3.26;80.54;98895.66;5099432;28;20024;-79
2022/12/09 10:02:10;;;;;;;34.40;20.98;;;;;;;3.37;80.84;98897.53;5097657;28;20032;-79
2022/12/09 10:04:44;;;;;;;32.90;20.42;;;;;;;3.53;80.40;98889.72;5079508;28;20048;-79
2022/12/09 10:07:13;;;;;;;;;;;;;;;3.36;81.29;98890.47;5101428;28;20023;-79
2022/12/09 10:09:59;;;;;;;32.80;19.23;;;;;;;3.50;80.69;98890.19;5097188;28;19920;-80
2022/12/09 10:12:42;;;;;;;30.13;17.90;;;;;;;3.60;79.00;98885.00;5099571;28;20056;-79
2022/12/09 10:15:12;;;;;;;30.40;15.87;;;;;;;3.62;79.34;98882.09;5100293;28;20483;-80
2022/12/09 10:17:48;;;;;;;25.50;15.85;;;;;;;3.57;79.82;98890.88;5100599;28;20058;-79
2022/12/09 10:20:18;;;;;;;26.95;15.02;;;;;;;3.55;79.21;98887.63;5100396;28;20371;-80
2022/12/09 10:23:10;;;;;;;27.23;14.43;;;;;;;3.62;78.52;98882.09;5100366;28;20051;-79
2022/12/09 10:25:41;;;;;;;25.33;15.68;;;;;;;3.67;78.21;98884.03;5114725;27;20054;-81
2022/12/09 10:28:24;;;;;;;27.48;15.15;;;;;;;3.71;77.68;98879.81;5097697;28;20468;-79
2022/12/09 10:30:51;;;;;;;27.15;16.23;;;;;;;3.58;77.98;98876.34;5096352;28;20028;-79
2022/12/09 10:33:18;;;;;;;27.63;14.23;;;;;;;3.73;77.71;98869.59;5099425;28;20700;-80
2022/12/09 10:35:44;;;;;;;26.30;15.10;;;;;;;3.82;77.65;98864.66;5100374;28;20113;-79
2022/12/09 10:38:12;;;;;;;24.80;14.98;;;;;;;3.82;77.21;98859.25;5099262;27;20464;-80
2022/12/09 10:40:43;;;;;;;32.97;17.02;;;;;;;3.76;77.10;98874.53;5099620;28;20027;-79
2022/12/09 10:43:42;;;;;;;26.45;15.82;;;;;;;3.82;76.80;98857.34;5099785;28;20028;-79
2022/12/09 10:46:12;;;;;;;28.02;17.05;;;;;;;3.76;76.80;98860.22;5097432;28;20032;-80
2022/12/09 10:48:46;;;;;;;25.65;15.73;;;;;;;3.73;76.75;98859.66;5098868;28;20046;-79
2022/12/09 10:51:17;;;;;;;26.80;15.02;;;;;;;3.75;76.98;98859.41;5099252;28;20412;-80
2022/12/09 10:53:53;;;;;;;21.73;12.45;;;;;;;3.76;76.14;98860.22;5098913;28;20024;-79
2022/12/09 10:56:23;;;;;;;28.58;13.93;;;;;;;3.59;75.91;98859.13;5098830;28;20082;-80
2022/12/09 10:59:06;;;;;;;26.95;17.58;;;;;;;3.47;77.91;98858.34;5097462;28;20040;-81
2022/12/09 11:01:53;;;;;;;29.15;15.95;;;;;;;3.90;76.10;98863.44;5096526;28;20397;-80
2022/12/09 11:04:26;;;;;;;29.08;17.90;;;;;;;3.77;76.42;98857.28;5095573;28;20067;-80
2022/12/09 11:06:55;;;;;;;29.85;16.75;;;;;;;3.82;77.17;98857.34;5097842;28;20038;-80
2022/12/09 11:09:25;;;;;;;34.10;18.80;;;;;;;3.90;77.47;98858.03;5098150;28;20032;-80
2022/12/09 11:11:51;;;;;;;32.42;17.08;;;;;;;3.77;78.01;98851.06;5098835;28;20038;-80
2022/12/09 11:14:32;;;;;;;25.38;15.95;;;;;;;3.77;77.13;98846.50;5097947;28;20438;-80
2022/12/09 11:17:10;;;;;;;34.30;14.27;;;;;;;3.71;77.08;98847.47;5098277;28;20193;-80
2022/12/09 11:19:37;;;;;;;22.65;13.23;;;;;;;3.62;77.74;98847.84;5099767;28;20031;-79
2022/12/09 11:22:22;;;;;;;36.08;14.57;;;;;;;3.63;76.66;98856.75;5099455;28;20209;-79
2022/12/09 11:24:50;;;;;;;27.33;15.02;;;;;;;3.90;77.10;98848.06;5098229;28;20085;-79
2022/12/09 11:27:28;;;;;;;31.52;17.17;;;;;;;4.03;76.72;98848.81;5098653;28;20036;-79
2022/12/09 11:30:09;;;;;;;23.88;14.43;;;;;;;4.03;76.50;98844.25;5100095;28;20024;-80
2022/12/09 11:32:51;;;;;;;26.02;16.90;;;;;;;3.87;77.63;98847.72;5100393;28;20559;-78
2022/12/09 11:35:19;;;;;;;23.92;15.25;;;;;;;4.04;77.46;98855.84;5097836;28;20024;-79